Time;durP1;ratioP1;P1;durP2;ratioP2;P2;SDS_P1;SDS_P2;PMS_P1;PMS_P2;Temp;Humidity;BMP_temperature;BMP_pressure;BME280_temperature;BME280_humidity;BME280_pressure;Samples;Min_cycle;Max_cycle;Signal;HPM_P1;HPM_P2
2023/01/23 00:00:14;;;;;;;12.17;9.73;;;;;;;1.85;92.02;99929.66;4994695;28;103280;-67
2023/01/23 00:02:42;;;;;;;11.57;9.67;;;;;;;1.67;92.36;99925.63;4973868;28;103992;-66
2023/01/23 00:05:14;;;;;;;12.47;9.87;;;;;;;1.47;93.35;99922.47;4974759;28;102768;-67
2023/01/23 00:07:42;;;;;;;12.27;10.27;;;;;;;1.58;92.91;99920.56;4976237;28;103995;-66
2023/01/23 00:10:11;;;;;;;12.00;9.53;;;;;;;1.55;93.19;99925.81;4974094;28;103252;-65
2023/01/23 00:12:41;;;;;;;9.77;8.43;;;;;;;1.87;92.63;99921.81;4971734;28;104302;-66
2023/01/23 00:15:10;;;;;;;10.67;8.60;;;;;;;2.04;91.99;99922.34;4974478;28;102705;-68
2023/01/23 00:17:40;;;;;;;12.20;10.00;;;;;;;2.07;90.37;99923.16;4973086;28;103246;-66
2023/01/23 00:20:09;;;;;;;12.17;9.90;;;;;;;1.91;90.09;99926.09;4976616;28;103072;-65
2023/01/23 00:22:38;;;;;;;12.63;9.50;;;;;;;2.05;90.02;99927.53;4977118;28;103328;-65
2023/01/23 00:25:07;;;;;;;12.73;9.47;;;;;;;2.08;90.20;99916.19;4974794;28;102697;-65
2023/01/23 00:27:35;;;;;;;10.97;7.80;;;;;;;2.02;89.34;99926.75;4976582;28;103298;-64
2023/01/23 00:30:03;;;;;;;10.70;8.13;;;;;;;2.27;89.90;99925.38;4977314;28;103960;-65
2023/01/23 00:32:31;;;;;;;12.20;9.23;;;;;;;2.19;88.59;99922.06;4977188;28;103331;-64
2023/01/23 00:35:02;;;;;;;9.13;7.70;;;;;;;2.31;88.92;99924.41;4977684;28;102570;-64
2023/01/23 00:37:30;;;;;;;12.27;10.40;;;;;;;2.31;88.18;99921.81;4975353;28;103576;-65
2023/01/23 00:40:00;;;;;;;11.23;8.40;;;;;;;2.35;88.07;99928.69;4977490;28;103305;-65
2023/01/23 00:42:28;;;;;;;11.80;9.03;;;;;;;2.22;87.76;99927.19;4977288;28;104047;-65
2023/01/23 00:44:59;;;;;;;12.07;10.03;;;;;;;2.29;87.46;99921.00;4961627;28;102745;-65
2023/01/23 00:47:27;;;;;;;13.53;9.03;;;;;;;2.11;87.90;99926.53;4964255;28;104265;-64
2023/01/23 00:49:56;;;;;;;9.43;8.07;;;;;;;2.30;87.95;99920.13;4978231;28;104133;-65
2023/01/23 00:52:25;;;;;;;11.13;9.40;;;;;;;2.26;87.92;99932.34;4975638;28;103301;-64
2023/01/23 00:54:53;;;;;;;9.63;8.47;;;;;;;1.91;87.82;99929.53;4963128;28;103068;-65
2023/01/23 00:57:23;;;;;;;10.63;9.20;;;;;;;1.87;89.11;99927.88;4976366;28;103750;-65
2023/01/23 00:59:51;;;;;;;11.07;8.40;;;;;;;2.04;89.32;99919.75;4963637;28;104528;-64
2023/01/23 01:02:18;;;;;;;10.30;8.77;;;;;;;1.98;89.14;99920.72;4977429;28;103670;-65
2023/01/23 01:04:46;;;;;;;12.10;10.03;;;;;;;1.69;89.80;99921.22;4993461;28;102667;-64
2023/01/23 01:07:14;;;;;;;10.60;8.63;;;;;;;1.96;90.34;99927.72;4984420;28;104004;-66
2023/01/23 01:09:42;;;;;;;9.73;8.70;;;;;;;1.99;89.88;99926.78;4985329;28;104328;-64
2023/01/23 01:12:10;;;;;;;10.00;7.30;;;;;;;2.13;89.20;99935.22;5006144;28;103308;-65
2023/01/23 01:14:39;;;;;;;11.37;9.73;;;;;;;1.87;90.14;99929.63;4989522;28;102613;-64
2023/01/23 01:17:07;;;;;;;10.37;8.83;;;;;;;2.06;89.78;99941.44;4985273;28;103603;-66
2023/01/23 01:19:35;;;;;;;11.43;8.97;;;;;;;2.31;89.71;99946.16;4988132;28;104084;-65
2023/01/23 01:22:03;;;;;;;9.67;7.53;;;;;;;2.47;89.37;99951.91;4997343;28;103218;-64
2023/01/23 01:24:31;;;;;;;9.23;7.37;;;;;;;2.54;88.89;99953.53;4996158;28;102671;-65
2023/01/23 01:26:59;;;;;;;12.07;9.37;;;;;;;2.57;87.71;99956.06;4995343;28;103897;-65
2023/01/23 01:29:27;;;;;;;12.63;9.63;;;;;;;2.51;87.17;99950.97;5005513;28;103319;-65
2023/01/23 01:31:56;;;;;;;11.30;9.43;;;;;;;2.48;87.66;99958.84;4994904;28;104221;-65
2023/01/23 01:34:24;;;;;;;12.00;9.77;;;;;;;2.41;87.40;99951.19;4981204;28;102735;-64
2023/01/23 01:36:52;;;;;;;10.97;9.10;;;;;;;2.36;87.67;99956.47;4997559;28;103014;-64
2023/01/23 01:39:20;;;;;;;9.80;8.20;;;;;;;2.38;88.12;99959.94;4993943;28;104075;-66
2023/01/23 01:41:48;;;;;;;10.90;8.73;;;;;;;2.48;87.93;99958.00;4981969;28;103035;-65
2023/01/23 01:44:17;;;;;;;11.50;8.63;;;;;;;2.29;88.01;99957.50;4983829;28;103811;-64
2023/01/23 01:46:47;;;;;;;10.10;8.23;;;;;;;2.41;87.90;99961.63;4970938;28;104217;-64
2023/01/23 01:49:20;;;;;;;10.03;8.40;;;;;;;2.37;87.78;99966.03;5004293;28;103770;-65
2023/01/23 01:51:53;;;;;;;11.90;9.03;;;;;;;2.28;88.49;99961.00;5000651;28;103361;-65
2023/01/23 01:54:27;;;;;;;11.53;9.37;;;;;;;2.14;87.96;99963.00;4989844;28;103446;-65
2023/01/23 01:57:00;;;;;;;10.30;8.87;;;;;;;2.05;89.50;99968.41;4973596;28;102836;-66
2023/01/23 01:59:32;;;;;;;11.07;9.70;;;;;;;2.23;88.82;99968.03;4992690;28;104262;-65
2023/01/23 02:02:05;;;;;;;10.77;9.13;;;;;;;2.24;89.27;99969.78;4978630;28;103143;-64
2023/01/23 02:04:37;;;;;;;10.83;8.97;;;;;;;2.00;90.00;99970.22;4994145;28;102687;-64
2023/01/23 02:07:11;;;;;;;10.43;9.13;;;;;;;2.00;90.68;99970.22;4986120;28;102861;-65
2023/01/23 02:09:40;;;;;;;12.43;10.10;;;;;;;2.02;89.99;99974.50;4984799;28;103265;-64
2023/01/23 02:12:10;;;;;;;9.40;7.80;;;;;;;2.12;89.57;99970.00;4978894;28;104165;-64
2023/01/23 02:14:40;;;;;;;11.20;8.73;;;;;;;2.10;89.47;99975.25;4986486;28;102771;-65
2023/01/23 02:17:09;;;;;;;11.77;9.20;;;;;;;2.17;89.49;99978.59;4995889;28;102694;-65
2023/01/23 02:19:48;;;;;;;11.23;9.37;;;;;;;1.82;90.93;99970.53;4995230;28;103827;-64
2023/01/23 02:22:28;;;;;;;12.20;9.20;;;;;;;1.88;90.63;99963.47;4992815;28;103200;-66
2023/01/23 02:25:03;;;;;;;11.83;9.43;;;;;;;2.00;90.78;99965.00;4994052;28;102870;-65
2023/01/23 02:27:32;;;;;;;10.63;8.80;;;;;;;2.02;91.22;99978.88;4995214;28;103381;-64
2023/01/23 02:30:00;;;;;;;10.37;8.53;;;;;;;2.23;90.46;99973.25;4983694;28;104204;-65
2023/01/23 02:32:31;;;;;;;10.67;9.23;;;;;;;2.01;91.74;99966.72;4986280;28;103425;-66
2023/01/23 02:35:02;;;;;;;10.07;8.37;;;;;;;2.29;90.25;99965.31;4995389;28;102650;-65
2023/01/23 02:37:34;;;;;;;11.20;9.60;;;;;;;1.98;89.99;99966.78;4997462;28;104059;-65
2023/01/23 02:40:03;;;;;;;12.23;9.77;;;;;;;1.94;90.40;99960.75;4976979;28;103043;-66
2023/01/23 02:42:37;;;;;;;12.43;9.37;;;;;;;1.56;91.43;99964.03;4985659;28;103280;-64
2023/01/23 02:45:08;;;;;;;12.43;9.80;;;;;;;1.53;92.28;99964.06;4980248;28;102721;-64
2023/01/23 02:47:36;;;;;;;12.97;9.93;;;;;;;1.51;92.93;99962.38;4995513;28;102698;-64
2023/01/23 02:50:05;;;;;;;10.53;8.30;;;;;;;1.89;92.04;99961.72;4977501;28;104387;-65
2023/01/23 02:52:35;;;;;;;12.40;9.83;;;;;;;1.53;92.51;99968.41;4978769;28;103227;-65
2023/01/23 02:55:05;;;;;;;13.33;10.33;;;;;;;1.54;92.96;99965.81;4986217;28;102671;-65
2023/01/23 02:57:36;;;;;;;11.10;9.37;;;;;;;1.65;91.92;99957.81;4982144;28;102820;-65
2023/01/23 03:00:18;;;;;;;11.97;10.20;;;;;;;1.62;91.93;99963.94;4994784;28;104281;-65
2023/01/23 03:02:48;;;;;;;11.80;9.07;;;;;;;1.75;91.59;99965.44;4987413;28;103217;-65
2023/01/23 03:05:16;;;;;;;12.53;10.07;;;;;;;1.93;90.96;99974.69;4972798;28;102738;-65
2023/01/23 03:07:44;;;;;;;12.77;9.20;;;;;;;1.94;91.07;99971.16;4972670;28;102749;-65
2023/01/23 03:10:12;;;;;;;12.77;10.30;;;;;;;1.86;90.37;99978.28;4994604;28;105019;-65
2023/01/23 03:12:44;;;;;;;12.57;10.50;;;;;;;1.69;90.78;99970.75;4979838;28;103972;-64
2023/01/23 03:15:15;;;;;;;13.03;10.70;;;;;;;1.58;91.57;99966.59;4980777;28;102700;-64
2023/01/23 03:17:43;;;;;;;12.03;10.37;;;;;;;1.65;91.93;99969.09;4992791;28;102737;-65
2023/01/23 03:20:13;;;;;;;12.47;10.10;;;;;;;1.52;91.89;99971.88;4993193;28;104108;-64
2023/01/23 03:22:41;;;;;;;12.00;10.47;;;;;;;1.48;92.31;99975.44;4979546;28;104210;-64
2023/01/23 03:25:12;;;;;;;12.80;10.67;;;;;;;1.44;92.14;99974.63;4982129;28;103185;-64
2023/01/23 03:27:42;;;;;;;12.40;9.40;;;;;;;1.87;91.83;99969.56;4984561;28;102792;-64
2023/01/23 03:30:12;;;;;;;14.53;11.03;;;;;;;2.02;90.78;99968.47;4996227;28;103762;-64
2023/01/23 03:32:40;;;;;;;12.90;10.13;;;;;;;1.91;90.55;99965.19;4974882;28;102924;-65
2023/01/23 03:35:12;;;;;;;13.20;11.03;;;;;;;1.85;89.48;99968.75;4982930;28;102687;-66
2023/01/23 03:37:41;;;;;;;11.53;9.83;;;;;;;1.59;91.27;99968.31;4994777;28;103104;-65
2023/01/23 03:43:01;;;;;;;14.07;11.10;;;;;;;1.55;91.53;99967.50;4979638;28;104145;-65
2023/01/23 03:45:30;;;;;;;14.53;10.63;;;;;;;1.62;91.48;99963.94;4992238;28;103025;-65
2023/01/23 03:47:58;;;;;;;13.63;10.00;;;;;;;1.59;91.58;99953.56;4980914;28;103942;-65
2023/01/23 03:50:26;;;;;;;13.33;11.17;;;;;;;1.50;91.98;99948.50;4979930;28;105838;-64
2023/01/23 03:52:54;;;;;;;13.43;10.93;;;;;;;1.68;91.54;99948.16;4979861;28;103322;-64
2023/01/23 03:55:22;;;;;;;14.57;11.13;;;;;;;1.32;92.01;99956.56;4995351;28;102595;-64
2023/01/23 03:57:50;;;;;;;14.47;11.03;;;;;;;1.74;91.27;99958.50;4996612;28;104035;-65
2023/01/23 04:00:19;;;;;;;13.10;10.33;;;;;;;1.79;90.43;99970.59;4999598;28;103984;-60
2023/01/23 04:02:56;;;;;;;14.67;11.47;;;;;;;1.71;90.00;99968.13;4998718;28;104174;-65
2023/01/23 04:05:24;;;;;;;14.17;10.77;;;;;;;1.75;90.73;99960.22;4980329;28;102629;-66
2023/01/23 04:07:52;;;;;;;13.80;10.77;;;;;;;1.83;90.99;99967.91;4976147;28;102791;-66
2023/01/23 04:10:20;;;;;;;15.30;11.13;;;;;;;1.82;90.80;99966.19;4989098;28;103169;-66
2023/01/23 04:12:53;;;;;;;12.30;9.63;;;;;;;1.86;90.55;99964.38;4979344;28;104074;-66
2023/01/23 04:15:22;;;;;;;13.30;11.03;;;;;;;2.03;89.91;99975.38;4998233;28;102907;-66
2023/01/23 04:17:52;;;;;;;15.43;11.93;;;;;;;2.12;88.96;99980.44;4975646;28;102981;-66
2023/01/23 04:20:24;;;;;;;14.97;11.27;;;;;;;1.53;91.05;99990.13;4976904;28;104381;-66
2023/01/23 04:22:53;;;;;;;15.20;11.33;;;;;;;1.32;91.87;99990.44;4996416;28;105174;-66
2023/01/23 04:25:22;;;;;;;13.97;10.80;;;;;;;1.24;92.63;99987.06;4977349;28;102624;-66
2023/01/23 04:27:50;;;;;;;13.00;11.03;;;;;;;1.21;93.08;99989.72;4988949;28;103815;-67
2023/01/23 04:30:18;;;;;;;14.20;11.03;;;;;;;1.62;91.55;99995.19;4988851;28;103633;-67
2023/01/23 04:32:47;;;;;;;14.27;11.47;;;;;;;1.63;91.39;100007.31;4993591;28;105513;-66
2023/01/23 04:35:17;;;;;;;13.63;11.00;;;;;;;1.47;91.52;99999.75;4977680;28;102661;-66
2023/01/23 04:37:47;;;;;;;14.37;11.03;;;;;;;1.38;91.98;100005.97;4974557;28;102773;-65
2023/01/23 04:40:16;;;;;;;13.87;11.13;;;;;;;1.29;93.09;100007.88;4977662;28;104333;-67
2023/01/23 04:42:57;;;;;;;13.97;11.37;;;;;;;1.26;93.06;100006.16;4979163;28;103285;-66
2023/01/23 04:45:45;;;;;;;14.80;11.07;;;;;;;1.18;93.65;100008.00;4992507;28;102631;-65
2023/01/23 04:48:31;;;;;;;13.57;10.73;;;;;;;1.39;93.02;100007.69;4994924;28;103902;-66
2023/01/23 04:50:59;;;;;;;12.93;10.60;;;;;;;1.69;92.28;100007.22;4986209;28;104402;-66
2023/01/23 04:53:29;;;;;;;15.70;11.33;;;;;;;1.58;91.53;100016.94;4985471;28;106309;-65
2023/01/23 04:56:01;;;;;;;14.27;11.50;;;;;;;1.41;91.68;100011.13;4980403;28;103078;-65
2023/01/23 04:58:29;;;;;;;15.57;11.33;;;;;;;1.51;91.83;100017.94;4982995;28;103223;-65
2023/01/23 05:01:04;;;;;;;14.30;11.00;;;;;;;1.32;92.08;100011.25;4997623;28;104191;-66
2023/01/23 05:03:34;;;;;;;15.00;11.27;;;;;;;1.44;92.23;100016.28;4975553;28;103190;-66
2023/01/23 05:06:03;;;;;;;12.80;10.10;;;;;;;1.62;91.32;100010.81;4972965;28;102759;-66
2023/01/23 05:08:32;;;;;;;14.60;11.57;;;;;;;1.54;91.72;100011.81;4977670;28;103578;-66
2023/01/23 05:11:17;;;;;;;15.77;11.47;;;;;;;1.50;91.70;100010.13;4973134;28;104132;-66
2023/01/23 05:13:45;;;;;;;14.27;11.03;;;;;;;1.65;90.78;100010.78;4975225;28;104088;-66
2023/01/23 05:16:16;;;;;;;15.37;11.77;;;;;;;1.49;91.33;100009.25;4974786;28;103232;-66
2023/01/23 05:19:16;;;;;;;13.83;11.53;;;;;;;1.73;91.74;100014.13;4928979;28;103871;-66
2023/01/23 05:21:45;;;;;;;14.37;11.50;;;;;;;1.67;90.39;100016.81;4976755;28;103818;-63
2023/01/23 05:24:20;;;;;;;15.27;12.17;;;;;;;1.62;90.59;100021.25;4976750;28;104912;-65
2023/01/23 05:26:49;;;;;;;16.03;11.37;;;;;;;1.64;90.00;100018.59;4978278;28;103004;-65
2023/01/23 05:29:19;;;;;;;15.27;11.37;;;;;;;1.54;90.99;100020.50;4977352;28;103089;-63
2023/01/23 05:32:10;;;;;;;14.60;10.80;;;;;;;1.66;90.52;100017.69;4975240;28;104293;-65
2023/01/23 05:34:38;;;;;;;14.57;11.10;;;;;;;1.71;90.63;100021.06;4976596;28;104317;-65
2023/01/23 05:37:24;;;;;;;13.80;11.13;;;;;;;1.77;90.06;100016.69;4976342;28;102725;-65
2023/01/23 05:39:57;;;;;;;14.77;10.90;;;;;;;1.79;90.31;100020.09;4976312;28;103870;-64
2023/01/23 05:42:30;;;;;;;11.33;9.63;;;;;;;2.12;88.88;100009.97;4975509;28;104357;-65
2023/01/23 05:45:02;;;;;;;13.83;9.87;;;;;;;2.19;88.41;100011.56;4975865;28;103324;-64
2023/01/23 05:47:38;;;;;;;15.27;10.87;;;;;;;1.71;88.75;100018.47;4967471;28;102739;-65
2023/01/23 05:50:08;;;;;;;14.00;9.40;;;;;;;1.95;90.09;100019.81;4975990;28;103754;-63
2023/01/23 05:52:37;;;;;;;13.93;10.50;;;;;;;1.91;89.00;100017.31;4970827;28;103227;-64
2023/01/23 05:55:08;;;;;;;15.23;11.37;;;;;;;1.98;88.64;100014.56;4974795;28;106976;-65
2023/01/23 05:57:39;;;;;;;15.30;10.80;;;;;;;1.78;89.62;100016.63;4992458;28;102613;-64
2023/01/23 06:00:30;;;;;;;13.33;10.43;;;;;;;1.66;90.15;100019.44;4937245;28;104028;-64
2023/01/23 06:03:18;;;;;;;12.93;9.53;;;;;;;1.71;90.40;100021.06;4982664;28;104168;-64
2023/01/23 06:06:01;;;;;;;13.50;10.60;;;;;;;2.03;89.21;100027.50;4991471;28;103293;-64
2023/01/23 06:08:29;;;;;;;14.57;10.73;;;;;;;2.16;88.31;100034.25;4979741;28;102683;-64
2023/01/23 06:10:59;;;;;;;13.10;9.90;;;;;;;2.27;88.07;100027.94;4953380;28;103694;-64
2023/01/23 06:13:27;;;;;;;12.30;9.83;;;;;;;2.31;87.74;100024.41;4970337;28;104222;-63
2023/01/23 06:15:56;;;;;;;13.80;10.60;;;;;;;2.02;87.75;100025.81;4977396;28;103215;-64
2023/01/23 06:18:25;;;;;;;14.37;10.37;;;;;;;2.19;87.36;100026.38;4973514;28;102916;-63
2023/01/23 06:20:58;;;;;;;14.60;10.00;;;;;;;2.30;86.84;100029.66;4972382;28;102920;-64
2023/01/23 06:23:26;;;;;;;14.47;11.30;;;;;;;2.29;87.10;100028.78;4992811;28;103594;-64
2023/01/23 06:25:54;;;;;;;12.53;9.87;;;;;;;2.36;87.36;100031.28;4988210;28;103231;-63
2023/01/23 06:28:24;;;;;;;13.63;10.70;;;;;;;1.99;88.31;100041.50;4989467;28;103281;-64
2023/01/23 06:30:52;;;;;;;13.10;10.07;;;;;;;1.98;87.71;100039.75;4972227;28;102835;-63
2023/01/23 06:33:31;;;;;;;13.47;10.43;;;;;;;2.08;88.15;100042.19;4973841;28;104093;-64
2023/01/23 06:35:59;;;;;;;14.23;10.80;;;;;;;1.68;88.89;100057.59;4973832;28;103092;-62
2023/01/23 06:38:28;;;;;;;12.23;10.30;;;;;;;1.47;90.44;100052.72;4980100;28;102654;-64
2023/01/23 06:40:58;;;;;;;15.63;11.10;;;;;;;1.84;89.21;100075.63;4979897;28;102889;-63
2023/01/23 06:43:34;;;;;;;14.33;10.93;;;;;;;1.77;88.80;100076.63;4977465;28;104193;-64
2023/01/23 06:46:03;;;;;;;15.80;10.00;;;;;;;2.24;88.67;100074.09;4971730;28;105737;-64
2023/01/23 06:48:32;;;;;;;11.73;9.67;;;;;;;2.37;87.79;100075.59;4987031;28;102673;-64
2023/01/23 06:51:00;;;;;;;13.93;10.80;;;;;;;2.03;87.82;100084.84;4974326;28;104391;-64
2023/01/23 06:53:28;;;;;;;15.17;11.33;;;;;;;2.11;87.25;100083.84;4989669;28;103283;-64
2023/01/23 06:55:59;;;;;;;14.37;11.30;;;;;;;2.17;86.96;100088.09;4990241;28;105447;-65
2023/01/23 06:58:29;;;;;;;15.67;10.73;;;;;;;2.00;89.41;100095.34;4984247;28;102825;-65
2023/01/23 07:00:59;;;;;;;15.37;11.43;;;;;;;2.03;88.22;100095.28;4970750;28;102731;-65
2023/01/23 07:04:07;;;;;;;13.87;10.20;;;;;;;2.19;87.55;100102.00;4991267;28;104214;-64
2023/01/23 07:06:36;;;;;;;11.90;9.43;;;;;;;2.45;87.27;100099.78;4977780;28;103295;-65
2023/01/23 07:09:04;;;;;;;16.10;11.07;;;;;;;2.09;87.61;100110.84;4979472;28;103220;-64
2023/01/23 07:11:36;;;;;;;15.93;11.70;;;;;;;2.05;88.71;100104.81;4994526;28;104009;-65
2023/01/23 07:14:05;;;;;;;15.90;11.67;;;;;;;2.14;87.59;100109.00;4979424;28;104225;-65
2023/01/23 07:16:36;;;;;;;15.53;10.97;;;;;;;1.82;88.72;100116.50;4981205;28;103197;-64
2023/01/23 07:19:06;;;;;;;13.23;10.33;;;;;;;2.00;88.75;100116.19;4979388;28;102703;-65
2023/01/23 07:21:37;;;;;;;16.80;11.70;;;;;;;1.90;88.30;100125.06;4987278;28;102815;-65
2023/01/23 07:24:08;;;;;;;17.30;11.10;;;;;;;1.58;89.76;100121.16;4994816;28;103241;-65
2023/01/23 07:26:36;;;;;;;17.83;11.47;;;;;;;1.47;90.78;100125.66;4993845;28;103232;-64
2023/01/23 07:29:05;;;;;;;15.57;11.90;;;;;;;1.58;90.91;100128.97;4988759;28;102708;-65
2023/01/23 07:31:33;;;;;;;15.70;11.27;;;;;;;1.89;89.69;100123.31;4994734;28;102853;-65
2023/01/23 07:34:03;;;;;;;14.63;10.97;;;;;;;2.01;89.39;100129.22;4970186;28;103973;-64
2023/01/23 07:36:31;;;;;;;15.93;11.23;;;;;;;1.60;89.21;100129.81;4993668;28;103193;-65
2023/01/23 07:38:59;;;;;;;15.90;11.57;;;;;;;1.94;89.00;100122.34;4987028;28;102597;-66
2023/01/23 07:41:26;;;;;;;15.83;11.73;;;;;;;1.95;89.30;100129.31;4994826;28;104288;-65
2023/01/23 07:43:54;;;;;;;16.63;11.87;;;;;;;1.91;89.28;100129.38;4989788;28;103320;-65
2023/01/23 07:46:25;;;;;;;16.77;11.70;;;;;;;1.89;89.19;100125.91;4975073;28;103204;-65
2023/01/23 07:48:55;;;;;;;17.97;11.93;;;;;;;1.62;90.29;100129.78;4991567;28;103736;-66
2023/01/23 07:51:24;;;;;;;17.93;13.17;;;;;;;1.60;90.55;100121.97;4993089;28;104347;-64
2023/01/23 07:53:52;;;;;;;17.47;13.03;;;;;;;1.87;90.65;100119.88;4995547;28;103191;-65
2023/01/23 07:56:20;;;;;;;16.80;11.50;;;;;;;2.00;88.68;100126.63;4987107;28;103212;-65
2023/01/23 07:58:49;;;;;;;18.43;13.10;;;;;;;2.36;88.35;100122.59;4995493;28;102657;-65
2023/01/23 08:01:18;;;;;;;18.40;12.30;;;;;;;2.24;87.67;100121.91;4987760;28;103809;-64
2023/01/23 08:03:47;;;;;;;15.97;11.80;;;;;;;2.04;88.46;100117.88;4980571;28;103420;-65
2023/01/23 08:06:15;;;;;;;19.17;12.80;;;;;;;1.46;91.42;100121.31;4988116;28;103198;-65
2023/01/23 08:08:47;;;;;;;20.63;13.00;;;;;;;1.35;92.27;100110.16;4994906;28;102652;-65
2023/01/23 08:11:15;;;;;;;17.57;12.33;;;;;;;1.39;92.41;100122.28;4987837;28;102679;-64
2023/01/23 08:13:43;;;;;;;18.40;13.20;;;;;;;1.40;92.24;100118.81;4988519;28;103465;-65
2023/01/23 08:16:11;;;;;;;20.03;13.40;;;;;;;1.48;91.86;100116.09;4977467;28;104350;-65
2023/01/23 08:18:40;;;;;;;19.67;13.33;;;;;;;1.56;91.57;100125.53;4994872;28;102661;-65
2023/01/23 08:21:11;;;;;;;18.40;12.57;;;;;;;1.57;90.89;100121.19;4994205;28;104058;-65
2023/01/23 08:23:40;;;;;;;18.43;12.87;;;;;;;1.54;91.25;100116.88;4992403;28;104204;-64
2023/01/23 08:26:13;;;;;;;21.00;13.70;;;;;;;1.46;91.19;100118.72;4989405;28;103337;-65
2023/01/23 08:28:41;;;;;;;20.63;14.00;;;;;;;1.52;91.50;100128.19;4994161;28;102662;-65
2023/01/23 08:31:11;;;;;;;19.50;13.80;;;;;;;1.57;90.57;100111.59;4988345;28;104148;-65
2023/01/23 08:33:40;;;;;;;17.67;12.97;;;;;;;1.68;90.52;100114.09;4995146;28;103083;-64
2023/01/23 08:36:11;;;;;;;17.53;12.60;;;;;;;1.72;90.73;100119.22;4985958;28;103189;-64
2023/01/23 08:38:39;;;;;;;17.07;12.73;;;;;;;1.44;89.78;100119.59;4992033;28;102764;-65
2023/01/23 08:41:10;;;;;;;16.93;11.60;;;;;;;1.45;88.54;100111.78;4986111;28;103832;-64
2023/01/23 08:43:40;;;;;;;17.97;12.73;;;;;;;1.47;88.43;100115.22;4998438;28;103368;-65
2023/01/23 08:46:09;;;;;;;18.17;12.00;;;;;;;1.46;88.12;100118.72;4988156;28;102967;-65
2023/01/23 08:48:39;;;;;;;18.03;12.27;;;;;;;1.49;87.30;100123.00;4995020;28;103810;-65
2023/01/23 08:51:09;;;;;;;16.20;11.77;;;;;;;1.59;87.72;100125.50;4993100;28;102698;-65
2023/01/23 08:53:37;;;;;;;17.20;12.07;;;;;;;1.63;87.05;100115.88;4978161;28;104248;-65
2023/01/23 08:56:07;;;;;;;17.40;11.20;;;;;;;1.60;86.46;100121.97;4995019;28;104763;-64
2023/01/23 08:58:35;;;;;;;16.70;11.63;;;;;;;1.89;85.76;100118.09;4973960;28;102761;-65
2023/01/23 09:01:04;;;;;;;15.80;11.20;;;;;;;1.98;86.07;100124.06;4996205;28;103711;-66
2023/01/23 09:03:32;;;;;;;15.23;11.63;;;;;;;2.09;84.75;100121.28;4990407;28;105074;-65
2023/01/23 09:06:01;;;;;;;13.67;10.10;;;;;;;1.72;82.66;100116.63;4996394;28;103156;-65
2023/01/23 09:08:29;;;;;;;13.13;10.10;;;;;;;1.91;82.86;100126.78;4992331;28;102641;-64
2023/01/23 09:11:00;;;;;;;15.83;10.13;;;;;;;1.94;82.59;100117.16;4988859;28;102772;-64
2023/01/23 09:13:28;;;;;;;12.37;9.23;;;;;;;1.92;80.79;100121.53;4994289;28;104029;-65
2023/01/23 09:15:56;;;;;;;11.63;9.27;;;;;;;1.85;80.98;100132.09;4998112;28;103313;-65
2023/01/23 09:18:26;;;;;;;13.60;9.27;;;;;;;2.04;80.89;100121.34;4996624;28;102596;-65
2023/01/23 09:20:55;;;;;;;12.17;9.13;;;;;;;2.02;80.59;100130.09;4992700;28;103092;-64
2023/01/23 09:23:24;;;;;;;14.10;9.57;;;;;;;2.21;81.19;100121.09;4996567;28;104231;-64
2023/01/23 09:25:52;;;;;;;12.57;9.67;;;;;;;2.24;81.00;100121.91;4993403;28;104401;-65
2023/01/23 09:28:20;;;;;;;13.70;9.50;;;;;;;2.12;79.88;100142.09;4998131;28;102963;-64
2023/01/23 09:30:50;;;;;;;11.43;8.73;;;;;;;2.22;79.32;100134.09;4993901;28;104045;-64
2023/01/23 09:33:23;;;;;;;14.10;9.63;;;;;;;2.27;80.17;100136.63;4982258;28;103277;-64
2023/01/23 09:35:53;;;;;;;11.80;8.53;;;;;;;2.03;80.20;100132.66;4977289;28;103187;-63
2023/01/23 09:38:21;;;;;;;13.87;10.00;;;;;;;2.33;80.68;100126.06;4981378;28;102651;-64
2023/01/23 09:40:52;;;;;;;10.73;8.77;;;;;;;2.17;80.79;100132.44;4991719;28;103121;-65
2023/01/23 09:43:25;;;;;;;12.87;9.70;;;;;;;2.08;80.89;100132.56;4979018;28;104168;-65
2023/01/23 09:46:01;;;;;;;13.13;9.33;;;;;;;1.97;81.93;100137.97;4998644;28;103229;-66
2023/01/23 09:48:39;;;;;;;14.30;9.57;;;;;;;1.85;81.02;100145.13;4998230;28;102551;-67
2023/01/23 09:51:15;;;;;;;12.27;9.57;;;;;;;2.03;81.08;100134.41;4998496;28;104087;-66
2023/01/23 09:53:43;;;;;;;13.50;9.33;;;;;;;1.79;81.47;100135.63;4978285;28;104190;-66
2023/01/23 09:56:22;;;;;;;11.80;8.30;;;;;;;2.06;80.17;100142.16;4997724;28;103191;-66
2023/01/23 09:59:02;;;;;;;11.43;8.90;;;;;;;2.15;80.33;100148.13;4997345;28;102620;-65
2023/01/23 10:01:31;;;;;;;11.40;8.60;;;;;;;1.98;80.28;100138.81;4998529;28;102705;-65
2023/01/23 10:04:00;;;;;;;12.33;9.30;;;;;;;2.21;80.03;100145.41;4998169;28;104294;-65
2023/01/23 10:06:33;;;;;;;10.67;8.03;;;;;;;1.99;79.22;100137.94;4979719;28;103248;-64
2023/01/23 10:09:20;;;;;;;13.03;8.40;;;;;;;2.04;80.18;100139.59;4995997;28;102703;-65
2023/01/23 10:11:59;;;;;;;12.07;8.77;;;;;;;2.13;80.24;100149.88;4989288;28;102670;-65
2023/01/23 10:14:47;;;;;;;12.57;9.23;;;;;;;1.97;80.13;100137.09;4995660;28;104174;-65
2023/01/23 10:17:22;;;;;;;11.33;8.37;;;;;;;1.97;80.53;100137.97;4997405;28;103245;-64
2023/01/23 10:20:13;;;;;;;12.40;8.70;;;;;;;2.08;79.96;100143.00;4993789;28;102643;-64
2023/01/23 10:22:50;;;;;;;13.40;9.17;;;;;;;2.21;80.20;100152.38;4996957;28;102653;-64
2023/01/23 10:25:22;;;;;;;13.00;9.43;;;;;;;2.37;79.40;100158.19;4997302;28;103401;-65
2023/01/23 10:27:52;;;;;;;12.27;8.73;;;;;;;2.09;79.89;100136.91;4996366;28;103227;-65
2023/01/23 10:30:28;;;;;;;12.57;8.97;;;;;;;2.26;79.53;100140.13;4997060;28;102615;-63
2023/01/23 10:32:58;;;;;;;12.93;9.20;;;;;;;2.49;79.49;100147.56;4978926;28;104388;-64
2023/01/23 10:35:36;;;;;;;13.33;9.03;;;;;;;2.37;80.02;100137.31;4979891;28;104185;-65
2023/01/23 10:38:16;;;;;;;12.07;9.30;;;;;;;2.66;78.99;100138.56;4997255;28;103203;-63
2023/01/23 10:43:32;;;;;;;13.00;9.63;;;;;;;2.31;78.69;100133.06;4992534;28;102636;-64
2023/01/23 10:46:01;;;;;;;11.77;8.77;;;;;;;2.48;79.28;100132.78;4977357;28;104611;-64
2023/01/23 10:48:39;;;;;;;14.80;9.77;;;;;;;2.33;79.87;100126.06;4971703;28;103406;-64
2023/01/23 10:51:34;;;;;;;13.27;9.50;;;;;;;2.58;80.09;100122.19;4991091;28;103137;-64
2023/01/23 10:54:12;;;;;;;13.87;9.07;;;;;;;2.01;80.25;100123.13;4976976;28;102848;-65
2023/01/23 10:56:59;;;;;;;13.83;10.10;;;;;;;2.25;80.34;100121.00;4995277;28;104931;-64
2023/01/23 10:59:37;;;;;;;14.50;9.77;;;;;;;2.51;80.07;100115.34;4995006;28;103003;-61
2023/01/23 11:02:20;;;;;;;12.97;9.63;;;;;;;2.53;79.77;100124.00;4981494;28;102750;-64
2023/01/23 11:04:51;;;;;;;13.77;9.53;;;;;;;2.74;78.88;100121.00;4993757;28;102681;-65
2023/01/23 11:07:21;;;;;;;13.00;8.90;;;;;;;2.20;80.00;100124.56;4986892;28;104235;-64
2023/01/23 11:09:54;;;;;;;14.53;10.20;;;;;;;2.05;80.30;100114.41;4987334;28;103073;-64
2023/01/23 11:12:24;;;;;;;12.50;9.37;;;;;;;2.10;80.06;100108.22;4987233;28;102767;-65
2023/01/23 11:15:11;;;;;;;12.50;9.43;;;;;;;2.21;80.54;100111.53;4987903;28;103816;-64
2023/01/23 11:17:41;;;;;;;14.47;9.77;;;;;;;2.47;79.50;100108.44;4987044;28;104028;-65
2023/01/23 11:20:24;;;;;;;13.00;9.67;;;;;;;2.38;79.59;100102.53;4986286;28;103254;-65
2023/01/23 11:23:15;;;;;;;12.53;8.80;;;;;;;2.30;79.50;100100.06;4988452;28;103014;-64
2023/01/23 11:25:46;;;;;;;13.13;9.43;;;;;;;2.20;80.14;100098.47;4990198;28;102860;-64
2023/01/23 11:28:22;;;;;;;13.47;8.73;;;;;;;2.12;80.94;100090.81;4995403;28;103284;-63
2023/01/23 11:30:54;;;;;;;15.87;10.40;;;;;;;2.68;80.17;100081.97;4990807;28;104724;-64
2023/01/23 11:33:46;;;;;;;14.97;10.13;;;;;;;2.57;80.62;100076.09;4995619;28;102622;-64
2023/01/23 11:36:41;;;;;;;14.60;10.07;;;;;;;2.30;80.06;100085.25;4990357;28;102661;-64
2023/01/23 11:39:18;;;;;;;14.77;10.73;;;;;;;2.28;80.15;100076.59;4987584;28;103363;-64
2023/01/23 11:41:50;;;;;;;13.37;9.80;;;;;;;2.64;79.66;100069.84;4989621;28;104593;-65